sensor_id;sensor_type;location;lat;lon;timestamp;pressure;altitude;pressure_sealevel;temperature;humidity
71778;BME280;59609;52.430;4.668;2022-09-06T00:02:20;101714.69;;;18.19;100.00
71778;BME280;59609;52.430;4.668;2022-09-06T00:04:46;101715.94;;;18.17;100.00
71778;BME280;59609;52.430;4.668;2022-09-06T00:07:12;101709.31;;;18.18;100.00
71778;BME280;59609;52.430;4.668;2022-09-06T00:09:38;101715.25;;;18.15;100.00
71778;BME280;59609;52.430;4.668;2022-09-06T00:12:03;101714.59;;;18.13;100.00
71778;BME280;59609;52.430;4.668;2022-09-06T00:14:29;101729.59;;;18.12;100.00
71778;BME280;59609;52.430;4.668;2022-09-06T00:16:54;101723.34;;;18.10;100.00
71778;BME280;59609;52.430;4.668;2022-09-06T00:19:19;101720.25;;;18.19;100.00
71778;BME280;59609;52.430;4.668;2022-09-06T00:21:45;101723.63;;;18.15;100.00
71778;BME280;59609;52.430;4.668;2022-09-06T00:24:10;101725.97;;;18.11;100.00
71778;BME280;59609;52.430;4.668;2022-09-06T00:26:35;101729.50;;;18.05;100.00
71778;BME280;59609;52.430;4.668;2022-09-06T00:29:01;101727.59;;;18.06;100.00
71778;BME280;59609;52.430;4.668;2022-09-06T00:31:26;101712.50;;;18.00;100.00
71778;BME280;59609;52.430;4.668;2022-09-06T00:33:52;101709.50;;;18.01;100.00
71778;BME280;59609;52.430;4.668;2022-09-06T00:36:19;101709.16;;;18.05;100.00
71778;BME280;59609;52.430;4.668;2022-09-06T00:38:44;101712.13;;;18.03;100.00
71778;BME280;59609;52.430;4.668;2022-09-06T00:41:12;101720.47;;;18.03;100.00
71778;BME280;59609;52.430;4.668;2022-09-06T00:43:37;101727.78;;;18.04;100.00
71778;BME280;59609;52.430;4.668;2022-09-06T00:46:03;101715.28;;;18.00;100.00
71778;BME280;59609;52.430;4.668;2022-09-06T00:48:30;101725.19;;;18.02;100.00
71778;BME280;59609;52.430;4.668;2022-09-06T00:50:59;101730.97;;;18.01;100.00
71778;BME280;59609;52.430;4.668;2022-09-06T00:53:25;101737.69;;;18.07;100.00
71778;BME280;59609;52.430;4.668;2022-09-06T00:55:52;101745.59;;;18.03;100.00
71778;BME280;59609;52.430;4.668;2022-09-06T00:58:19;101741.75;;;18.04;100.00
71778;BME280;59609;52.430;4.668;2022-09-06T01:00:44;101739.63;;;18.06;100.00
71778;BME280;59609;52.430;4.668;2022-09-06T01:03:10;101753.78;;;18.05;100.00
71778;BME280;59609;52.430;4.668;2022-09-06T01:29:59;101745.31;;;17.83;100.00
71778;BME280;59609;52.430;4.668;2022-09-06T01:32:34;101752.78;;;17.83;100.00
71778;BME280;59609;52.430;4.668;2022-09-06T01:37:51;101730.31;;;17.84;100.00
71778;BME280;59609;52.430;4.668;2022-09-06T01:40:16;101724.91;;;17.83;100.00
71778;BME280;59609;52.430;4.668;2022-09-06T01:42:43;101730.78;;;17.88;100.00
71778;BME280;59609;52.430;4.668;2022-09-06T01:45:14;101719.16;;;17.84;100.00
71778;BME280;59609;52.430;4.668;2022-09-06T01:53:18;101707.31;;;17.82;100.00
71778;BME280;59609;52.430;4.668;2022-09-06T01:55:53;101700.69;;;17.83;100.00
71778;BME280;59609;52.430;4.668;2022-09-06T02:01:00;101679.25;;;17.84;100.00
71778;BME280;59609;52.430;4.668;2022-09-06T02:06:12;101668.91;;;17.78;100.00
71778;BME280;59609;52.430;4.668;2022-09-06T02:08:52;101672.91;;;17.75;100.00
71778;BME280;59609;52.430;4.668;2022-09-06T02:11:21;101662.63;;;17.76;100.00
71778;BME280;59609;52.430;4.668;2022-09-06T02:13:51;101654.66;;;17.73;100.00
71778;BME280;59609;52.430;4.668;2022-09-06T02:16:25;101663.66;;;17.75;100.00
71778;BME280;59609;52.430;4.668;2022-09-06T02:18:54;101661.09;;;17.73;100.00
71778;BME280;59609;52.430;4.668;2022-09-06T02:21:28;101660.44;;;17.71;100.00
71778;BME280;59609;52.430;4.668;2022-09-06T02:23:56;101659.56;;;17.71;100.00
71778;BME280;59609;52.430;4.668;2022-09-06T02:26:26;101647.56;;;17.70;100.00
71778;BME280;59609;52.430;4.668;2022-09-06T02:28:53;101652.66;;;17.67;100.00
71778;BME280;59609;52.430;4.668;2022-09-06T02:31:25;101655.44;;;17.67;100.00
71778;BME280;59609;52.430;4.668;2022-09-06T02:33:53;101661.66;;;17.69;100.00
71778;BME280;59609;52.430;4.668;2022-09-06T02:36:18;101653.22;;;17.62;100.00
71778;BME280;59609;52.430;4.668;2022-09-06T02:38:45;101639.00;;;17.57;100.00
71778;BME280;59609;52.430;4.668;2022-09-06T02:41:11;101646.66;;;17.55;100.00
71778;BME280;59609;52.430;4.668;2022-09-06T02:43:38;101656.78;;;17.56;100.00
71778;BME280;59609;52.430;4.668;2022-09-06T02:46:04;101659.91;;;17.53;100.00
71778;BME280;59609;52.430;4.668;2022-09-06T02:48:30;101646.56;;;17.48;100.00
71778;BME280;59609;52.430;4.668;2022-09-06T02:50:55;101638.78;;;17.44;100.00
71778;BME280;59609;52.430;4.668;2022-09-06T02:53:21;101640.88;;;17.42;100.00
71778;BME280;59609;52.430;4.668;2022-09-06T02:55:46;101644.75;;;17.41;100.00
71778;BME280;59609;52.430;4.668;2022-09-06T02:58:13;101652.72;;;17.44;100.00
71778;BME280;59609;52.430;4.668;2022-09-06T03:00:39;101649.25;;;17.42;100.00
71778;BME280;59609;52.430;4.668;2022-09-06T03:03:04;101648.59;;;17.40;100.00
71778;BME280;59609;52.430;4.668;2022-09-06T03:05:30;101656.16;;;17.46;100.00
71778;BME280;59609;52.430;4.668;2022-09-06T03:07:56;101650.13;;;17.42;100.00
71778;BME280;59609;52.430;4.668;2022-09-06T03:10:22;101653.38;;;17.46;100.00
71778;BME280;59609;52.430;4.668;2022-09-06T03:12:47;101646.28;;;17.43;100.00
71778;BME280;59609;52.430;4.668;2022-09-06T03:15:15;101658.56;;;17.49;100.00
71778;BME280;59609;52.430;4.668;2022-09-06T03:17:41;101654.03;;;17.48;100.00
71778;BME280;59609;52.430;4.668;2022-09-06T03:20:07;101661.97;;;17.59;100.00
71778;BME280;59609;52.430;4.668;2022-09-06T03:22:37;101660.22;;;17.58;100.00
71778;BME280;59609;52.430;4.668;2022-09-06T03:25:07;101665.63;;;17.60;100.00
71778;BME280;59609;52.430;4.668;2022-09-06T03:27:33;101659.47;;;17.64;100.00
71778;BME280;59609;52.430;4.668;2022-09-06T03:29:58;101656.69;;;17.64;100.00
71778;BME280;59609;52.430;4.668;2022-09-06T03:32:23;101651.28;;;17.63;100.00
71778;BME280;59609;52.430;4.668;2022-09-06T03:34:49;101652.66;;;17.67;100.00
71778;BME280;59609;52.430;4.668;2022-09-06T03:37:14;101659.56;;;17.71;100.00
71778;BME280;59609;52.430;4.668;2022-09-06T03:39:39;101660.81;;;17.68;100.00
71778;BME280;59609;52.430;4.668;2022-09-06T03:42:05;101669.84;;;17.70;100.00
71778;BME280;59609;52.430;4.668;2022-09-06T03:44:30;101675.22;;;17.72;100.00
71778;BME280;59609;52.430;4.668;2022-09-06T03:46:56;101673.13;;;17.74;100.00
71778;BME280;59609;52.430;4.668;2022-09-06T03:49:21;101682.63;;;17.79;100.00
71778;BME280;59609;52.430;4.668;2022-09-06T03:51:46;101692.91;;;17.79;100.00
71778;BME280;59609;52.430;4.668;2022-09-06T03:54:12;101690.81;;;17.81;100.00
71778;BME280;59609;52.430;4.668;2022-09-06T03:56:37;101694.06;;;17.84;100.00
71778;BME280;59609;52.430;4.668;2022-09-06T03:59:02;101696.00;;;17.84;100.00
71778;BME280;59609;52.430;4.668;2022-09-06T04:01:28;101689.53;;;17.83;100.00
71778;BME280;59609;52.430;4.668;2022-09-06T04:03:53;101698.19;;;17.88;100.00
71778;BME280;59609;52.430;4.668;2022-09-06T04:06:19;101688.97;;;17.88;100.00
71778;BME280;59609;52.430;4.668;2022-09-06T04:08:44;101700.78;;;17.90;100.00
71778;BME280;59609;52.430;4.668;2022-09-06T04:11:09;101714.16;;;17.94;100.00
71778;BME280;59609;52.430;4.668;2022-09-06T04:13:36;101712.31;;;17.87;100.00
71778;BME280;59609;52.430;4.668;2022-09-06T04:16:02;101715.78;;;17.89;100.00
71778;BME280;59609;52.430;4.668;2022-09-06T04:18:28;101720.78;;;17.79;100.00
71778;BME280;59609;52.430;4.668;2022-09-06T04:20:54;101715.59;;;17.76;100.00
71778;BME280;59609;52.430;4.668;2022-09-06T04:23:24;101717.91;;;17.72;100.00
71778;BME280;59609;52.430;4.668;2022-09-06T04:25:52;101719.34;;;17.68;100.00
71778;BME280;59609;52.430;4.668;2022-09-06T04:28:18;101714.53;;;17.62;100.00
71778;BME280;59609;52.430;4.668;2022-09-06T04:31:04;101715.78;;;17.60;100.00
71778;BME280;59609;52.430;4.668;2022-09-06T04:33:30;101720.00;;;17.56;100.00
71778;BME280;59609;52.430;4.668;2022-09-06T04:35:58;101731.00;;;17.49;100.00
71778;BME280;59609;52.430;4.668;2022-09-06T04:38:25;101722.00;;;17.47;100.00
71778;BME280;59609;52.430;4.668;2022-09-06T04:40:51;101722.38;;;17.44;100.00
71778;BME280;59609;52.430;4.668;2022-09-06T04:43:16;101728.81;;;17.44;100.00
71778;BME280;59609;52.430;4.668;2022-09-06T04:45:43;101710.53;;;17.42;100.00
71778;BME280;59609;52.430;4.668;2022-09-06T04:48:09;101714.19;;;17.42;100.00
71778;BME280;59609;52.430;4.668;2022-09-06T04:50:35;101699.41;;;17.42;100.00
71778;BME280;59609;52.430;4.668;2022-09-06T04:53:00;101703.06;;;17.42;100.00
71778;BME280;59609;52.430;4.668;2022-09-06T04:55:25;101700.09;;;17.44;100.00
71778;BME280;59609;52.430;4.668;2022-09-06T04:57:53;101715.25;;;17.41;100.00
71778;BME280;59609;52.430;4.668;2022-09-06T05:00:19;101705.34;;;17.39;100.00
71778;BME280;59609;52.430;4.668;2022-09-06T05:02:44;101713.22;;;17.35;100.00
71778;BME280;59609;52.430;4.668;2022-09-06T05:05:10;101706.13;;;17.33;100.00
71778;BME280;59609;52.430;4.668;2022-09-06T05:07:35;101716.00;;;17.35;100.00
71778;BME280;59609;52.430;4.668;2022-09-06T05:10:00;101705.25;;;17.32;100.00
71778;BME280;59609;52.430;4.668;2022-09-06T05:12:26;101681.59;;;17.28;100.00
71778;BME280;59609;52.430;4.668;2022-09-06T05:14:51;101692.75;;;17.28;100.00
71778;BME280;59609;52.430;4.668;2022-09-06T05:17:17;101671.06;;;17.24;100.00
71778;BME280;59609;52.430;4.668;2022-09-06T05:19:42;101676.25;;;17.27;100.00
71778;BME280;59609;52.430;4.668;2022-09-06T05:22:07;101666.53;;;17.23;100.00
71778;BME280;59609;52.430;4.668;2022-09-06T05:24:34;101668.44;;;17.22;100.00
71778;BME280;59609;52.430;4.668;2022-09-06T05:26:59;101662.00;;;17.22;100.00
71778;BME280;59609;52.430;4.668;2022-09-06T05:29:28;101649.81;;;17.23;100.00
71778;BME280;59609;52.430;4.668;2022-09-06T05:31:53;101643.69;;;17.27;100.00
71778;BME280;59609;52.430;4.668;2022-09-06T05:34:19;101645.31;;;17.36;100.00
71778;BME280;59609;52.430;4.668;2022-09-06T05:36:44;101648.03;;;17.44;100.00
71778;BME280;59609;52.430;4.668;2022-09-06T05:39:10;101626.78;;;17.43;100.00
71778;BME280;59609;52.430;4.668;2022-09-06T05:41:35;101636.75;;;17.52;100.00
71778;BME280;59609;52.430;4.668;2022-09-06T05:44:01;101629.22;;;17.61;100.00
71778;BME280;59609;52.430;4.668;2022-09-06T05:46:26;101628.44;;;17.67;100.00
71778;BME280;59609;52.430;4.668;2022-09-06T05:48:58;101630.13;;;17.68;100.00
71778;BME280;59609;52.430;4.668;2022-09-06T05:51:32;101638.00;;;17.79;100.00
71778;BME280;59609;52.430;4.668;2022-09-06T05:53:57;101642.41;;;17.88;100.00
71778;BME280;59609;52.430;4.668;2022-09-06T05:56:23;101638.66;;;17.96;100.00
71778;BME280;59609;52.430;4.668;2022-09-06T05:58:48;101642.00;;;18.06;100.00
71778;BME280;59609;52.430;4.668;2022-09-06T06:01:22;101638.88;;;18.16;100.00
71778;BME280;59609;52.430;4.668;2022-09-06T06:03:55;101639.91;;;18.29;100.00
71778;BME280;59609;52.430;4.668;2022-09-06T06:06:25;101636.13;;;18.37;100.00
71778;BME280;59609;52.430;4.668;2022-09-06T06:08:51;101646.91;;;18.40;100.00
71778;BME280;59609;52.430;4.668;2022-09-06T06:11:16;101636.38;;;18.42;100.00
71778;BME280;59609;52.430;4.668;2022-09-06T06:13:42;101640.25;;;18.41;100.00
71778;BME280;59609;52.430;4.668;2022-09-06T06:16:10;101644.28;;;18.38;100.00
71778;BME280;59609;52.430;4.668;2022-09-06T06:18:36;101644.50;;;18.37;100.00
71778;BME280;59609;52.430;4.668;2022-09-06T06:23:52;101648.81;;;18.54;100.00
71778;BME280;59609;52.430;4.668;2022-09-06T06:26:18;101646.72;;;18.63;99.90
71778;BME280;59609;52.430;4.668;2022-09-06T06:28:43;101644.13;;;18.82;100.00
71778;BME280;59609;52.430;4.668;2022-09-06T06:31:09;101644.16;;;18.89;98.78
71778;BME280;59609;52.430;4.668;2022-09-06T06:33:36;101643.81;;;18.98;99.32
71778;BME280;59609;52.430;4.668;2022-09-06T06:38:35;101642.41;;;19.09;97.74
71778;BME280;59609;52.430;4.668;2022-09-06T06:41:02;101644.78;;;19.12;97.66
71778;BME280;59609;52.430;4.668;2022-09-06T06:43:28;101644.66;;;19.20;98.20
71778;BME280;59609;52.430;4.668;2022-09-06T06:45:54;101641.22;;;19.25;97.54
71778;BME280;59609;52.430;4.668;2022-09-06T06:48:22;101637.41;;;19.32;97.31
71778;BME280;59609;52.430;4.668;2022-09-06T06:50:48;101646.47;;;19.34;95.14
71778;BME280;59609;52.430;4.668;2022-09-06T06:53:13;101648.25;;;19.42;97.17
71778;BME280;59609;52.430;4.668;2022-09-06T06:55:38;101629.94;;;19.39;96.74
71778;BME280;59609;52.430;4.668;2022-09-06T06:58:04;101637.53;;;19.45;96.51
71778;BME280;59609;52.430;4.668;2022-09-06T07:00:29;101642.97;;;19.53;96.71
71778;BME280;59609;52.430;4.668;2022-09-06T07:02:54;101626.19;;;19.53;94.47
71778;BME280;59609;52.430;4.668;2022-09-06T07:05:24;101633.78;;;19.66;94.15
71778;BME280;59609;52.430;4.668;2022-09-06T07:07:49;101635.56;;;19.74;94.42
71778;BME280;59609;52.430;4.668;2022-09-06T07:10:15;101628.91;;;19.75;94.14
71778;BME280;59609;52.430;4.668;2022-09-06T07:12:40;101627.00;;;19.88;93.88
71778;BME280;59609;52.430;4.668;2022-09-06T07:15:06;101625.09;;;19.95;92.44
71778;BME280;59609;52.430;4.668;2022-09-06T07:17:31;101616.28;;;20.05;92.24
71778;BME280;59609;52.430;4.668;2022-09-06T07:19:57;101632.03;;;20.06;91.87
71778;BME280;59609;52.430;4.668;2022-09-06T07:22:22;101636.66;;;20.27;92.01
71778;BME280;59609;52.430;4.668;2022-09-06T07:24:48;101647.63;;;20.35;86.88
71778;BME280;59609;52.430;4.668;2022-09-06T07:27:13;101650.06;;;20.51;88.80
71778;BME280;59609;52.430;4.668;2022-09-06T07:29:38;101634.78;;;20.60;88.27
71778;BME280;59609;52.430;4.668;2022-09-06T07:32:04;101620.53;;;20.62;83.84
71778;BME280;59609;52.430;4.668;2022-09-06T07:34:30;101635.00;;;20.72;83.23
71778;BME280;59609;52.430;4.668;2022-09-06T07:36:57;101627.88;;;20.69;81.91
71778;BME280;59609;52.430;4.668;2022-09-06T07:39:23;101631.56;;;20.76;82.52
71778;BME280;59609;52.430;4.668;2022-09-06T07:41:49;101656.78;;;20.96;81.48
71778;BME280;59609;52.430;4.668;2022-09-06T07:44:17;101644.06;;;21.00;81.82
71778;BME280;59609;52.430;4.668;2022-09-06T07:46:42;101647.97;;;21.12;82.00
71778;BME280;59609;52.430;4.668;2022-09-06T07:49:08;101645.38;;;21.24;80.80
71778;BME280;59609;52.430;4.668;2022-09-06T07:51:33;101642.34;;;21.12;80.92
71778;BME280;59609;52.430;4.668;2022-09-06T07:53:58;101632.44;;;21.16;82.40
71778;BME280;59609;52.430;4.668;2022-09-06T07:56:24;101621.88;;;21.31;82.99
71778;BME280;59609;52.430;4.668;2022-09-06T07:58:50;101628.94;;;21.47;81.05
71778;BME280;59609;52.430;4.668;2022-09-06T08:01:36;101632.41;;;21.36;80.08
71778;BME280;59609;52.430;4.668;2022-09-06T08:04:08;101633.03;;;21.51;79.96
71778;BME280;59609;52.430;4.668;2022-09-06T08:06:40;101631.50;;;21.68;80.11
71778;BME280;59609;52.430;4.668;2022-09-06T08:09:07;101627.06;;;21.98;77.11
71778;BME280;59609;52.430;4.668;2022-09-06T08:11:34;101625.81;;;21.94;76.40
71778;BME280;59609;52.430;4.668;2022-09-06T08:14:01;101618.22;;;22.01;76.75
71778;BME280;59609;52.430;4.668;2022-09-06T08:16:28;101618.41;;;22.06;75.00
71778;BME280;59609;52.430;4.668;2022-09-06T08:18:58;101610.53;;;22.28;75.55
71778;BME280;59609;52.430;4.668;2022-09-06T08:21:26;101613.13;;;22.23;75.30
71778;BME280;59609;52.430;4.668;2022-09-06T08:23:54;101615.03;;;22.29;74.72
71778;BME280;59609;52.430;4.668;2022-09-06T08:26:21;101613.81;;;22.12;75.50
71778;BME280;59609;52.430;4.668;2022-09-06T08:28:52;101618.94;;;22.28;74.78
71778;BME280;59609;52.430;4.668;2022-09-06T08:31:17;101622.03;;;22.51;74.82
71778;BME280;59609;52.430;4.668;2022-09-06T08:33:43;101632.53;;;22.31;73.79
71778;BME280;59609;52.430;4.668;2022-09-06T08:36:10;101626.78;;;22.51;73.69
71778;BME280;59609;52.430;4.668;2022-09-06T08:38:35;101623.44;;;22.29;73.67
71778;BME280;59609;52.430;4.668;2022-09-06T08:43:34;101627.19;;;22.17;75.36
71778;BME280;59609;52.430;4.668;2022-09-06T08:46:00;101626.59;;;22.08;74.48
71778;BME280;59609;52.430;4.668;2022-09-06T08:48:31;101623.88;;;21.95;75.68
71778;BME280;59609;52.430;4.668;2022-09-06T08:51:10;101632.56;;;22.25;76.28
71778;BME280;59609;52.430;4.668;2022-09-06T08:53:44;101639.00;;;22.63;75.48
71778;BME280;59609;52.430;4.668;2022-09-06T08:56:33;101621.75;;;22.91;74.75
71778;BME280;59609;52.430;4.668;2022-09-06T08:59:10;101622.09;;;23.01;73.64
71778;BME280;59609;52.430;4.668;2022-09-06T09:01:58;101621.00;;;23.27;73.59
71778;BME280;59609;52.430;4.668;2022-09-06T09:04:33;101621.44;;;22.99;72.81
71778;BME280;59609;52.430;4.668;2022-09-06T09:07:54;101607.72;;;23.34;72.91
71778;BME280;59609;52.430;4.668;2022-09-06T09:09:54;101604.13;;;23.27;72.65
71778;BME280;59609;52.430;4.668;2022-09-06T09:12:22;101613.50;;;23.39;70.95
71778;BME280;59609;52.430;4.668;2022-09-06T09:14:51;101610.41;;;23.04;72.54
71778;BME280;59609;52.430;4.668;2022-09-06T09:17:25;101605.56;;;22.86;73.31
71778;BME280;59609;52.430;4.668;2022-09-06T09:19:51;101603.28;;;22.77;74.75
71778;BME280;59609;52.430;4.668;2022-09-06T09:22:17;101599.50;;;22.89;73.83
71778;BME280;59609;52.430;4.668;2022-09-06T09:24:44;101589.97;;;23.33;73.71
71778;BME280;59609;52.430;4.668;2022-09-06T09:27:11;101595.50;;;23.65;70.94
71778;BME280;59609;52.430;4.668;2022-09-06T09:30:20;101598.28;;;23.83;69.41
71778;BME280;59609;52.430;4.668;2022-09-06T09:37:46;101595.97;;;23.43;70.79
71778;BME280;59609;52.430;4.668;2022-09-06T09:40:14;101600.97;;;23.17;69.82
71778;BME280;59609;52.430;4.668;2022-09-06T09:42:41;101600.00;;;23.04;69.73
71778;BME280;59609;52.430;4.668;2022-09-06T09:45:26;101599.44;;;23.39;71.09
71778;BME280;59609;52.430;4.668;2022-09-06T09:47:52;101605.50;;;23.18;71.94
71778;BME280;59609;52.430;4.668;2022-09-06T09:52:52;101608.53;;;23.41;71.69
71778;BME280;59609;52.430;4.668;2022-09-06T09:55:22;101599.34;;;23.27;70.95
71778;BME280;59609;52.430;4.668;2022-09-06T09:57:49;101606.28;;;23.68;69.77
71778;BME280;59609;52.430;4.668;2022-09-06T10:00:35;101609.47;;;23.53;70.79
71778;BME280;59609;52.430;4.668;2022-09-06T10:03:14;101616.44;;;23.26;70.87
71778;BME280;59609;52.430;4.668;2022-09-06T10:05:42;101616.91;;;23.47;71.12
71778;BME280;59609;52.430;4.668;2022-09-06T10:08:22;101605.56;;;23.90;68.99
71778;BME280;59609;52.430;4.668;2022-09-06T10:10:48;101618.66;;;24.33;68.27
71778;BME280;59609;52.430;4.668;2022-09-06T10:13:27;101618.47;;;23.98;68.45
71778;BME280;59609;52.430;4.668;2022-09-06T10:15:59;101621.72;;;24.61;67.71
71778;BME280;59609;52.430;4.668;2022-09-06T10:18:28;101626.22;;;24.21;68.35
71778;BME280;59609;52.430;4.668;2022-09-06T10:20:58;101629.66;;;23.86;69.81
71778;BME280;59609;52.430;4.668;2022-09-06T10:29:03;101649.50;;;24.09;69.13
71778;BME280;59609;52.430;4.668;2022-09-06T10:31:44;101650.91;;;24.19;68.85
71778;BME280;59609;52.430;4.668;2022-09-06T10:40:08;101652.66;;;24.20;68.56
71778;BME280;59609;52.430;4.668;2022-09-06T10:42:48;101655.88;;;24.83;65.92
71778;BME280;59609;52.430;4.668;2022-09-06T10:50:21;101655.94;;;24.17;68.66
71778;BME280;59609;52.430;4.668;2022-09-06T10:52:50;101642.56;;;25.01;66.59
71778;BME280;59609;52.430;4.668;2022-09-06T10:55:17;101636.59;;;25.44;64.08
71778;BME280;59609;52.430;4.668;2022-09-06T10:57:53;101634.84;;;25.08;62.84
71778;BME280;59609;52.430;4.668;2022-09-06T11:00:20;101636.59;;;25.44;62.47
71778;BME280;59609;52.430;4.668;2022-09-06T11:03:07;101648.59;;;25.05;63.27
71778;BME280;59609;52.430;4.668;2022-09-06T11:05:39;101657.66;;;24.77;64.14
71778;BME280;59609;52.430;4.668;2022-09-06T11:08:19;101650.94;;;25.31;63.24
71778;BME280;59609;52.430;4.668;2022-09-06T11:10:48;101657.75;;;25.12;63.20
71778;BME280;59609;52.430;4.668;2022-09-06T11:13:17;101666.47;;;25.22;64.03
71778;BME280;59609;52.430;4.668;2022-09-06T11:15:51;101674.25;;;25.73;61.62
71778;BME280;59609;52.430;4.668;2022-09-06T11:21:01;101660.28;;;25.78;62.55
71778;BME280;59609;52.430;4.668;2022-09-06T11:23:50;101676.69;;;25.35;65.08
71778;BME280;59609;52.430;4.668;2022-09-06T11:29:17;101669.50;;;25.50;64.58
71778;BME280;59609;52.430;4.668;2022-09-06T11:31:55;101673.13;;;25.39;64.55
71778;BME280;59609;52.430;4.668;2022-09-06T11:34:34;101673.78;;;25.53;64.46
71778;BME280;59609;52.430;4.668;2022-09-06T11:37:02;101660.47;;;26.11;62.70
71778;BME280;59609;52.430;4.668;2022-09-06T11:39:31;101651.03;;;25.83;61.71
71778;BME280;59609;52.430;4.668;2022-09-06T11:41:57;101663.28;;;26.11;60.48
71778;BME280;59609;52.430;4.668;2022-09-06T11:47:36;101666.16;;;26.40;59.62
71778;BME280;59609;52.430;4.668;2022-09-06T12:00:36;101667.47;;;25.97;59.86
71778;BME280;59609;52.430;4.668;2022-09-06T12:03:06;101663.78;;;26.20;59.53
71778;BME280;59609;52.430;4.668;2022-09-06T12:05:32;101664.75;;;26.54;59.05
71778;BME280;59609;52.430;4.668;2022-09-06T12:16:03;101674.88;;;25.87;60.23
71778;BME280;59609;52.430;4.668;2022-09-06T12:23:56;101677.66;;;26.22;57.58
71778;BME280;59609;52.430;4.668;2022-09-06T12:29:11;101676.09;;;25.79;59.92
71778;BME280;59609;52.430;4.668;2022-09-06T12:31:39;101670.34;;;25.63;60.36
71778;BME280;59609;52.430;4.668;2022-09-06T12:34:30;101671.66;;;26.18;60.02
71778;BME280;59609;52.430;4.668;2022-09-06T12:37:06;101672.16;;;25.69;58.08
71778;BME280;59609;52.430;4.668;2022-09-06T12:39:32;101671.88;;;26.28;58.42
71778;BME280;59609;52.430;4.668;2022-09-06T12:42:11;101667.53;;;26.37;58.53
71778;BME280;59609;52.430;4.668;2022-09-06T12:44:45;101669.25;;;26.67;57.15
71778;BME280;59609;52.430;4.668;2022-09-06T12:47:25;101663.03;;;26.53;57.15
71778;BME280;59609;52.430;4.668;2022-09-06T12:52:55;101643.66;;;26.45;58.24
71778;BME280;59609;52.430;4.668;2022-09-06T12:55:35;101638.84;;;26.17;58.12
71778;BME280;59609;52.430;4.668;2022-09-06T12:58:07;101633.47;;;26.44;57.20
71778;BME280;59609;52.430;4.668;2022-09-06T13:00:39;101638.34;;;26.08;57.64
71778;BME280;59609;52.430;4.668;2022-09-06T13:03:30;101646.41;;;26.56;57.87
71778;BME280;59609;52.430;4.668;2022-09-06T13:06:02;101640.31;;;26.20;56.59
71778;BME280;59609;52.430;4.668;2022-09-06T13:08:38;101639.19;;;26.77;56.67
71778;BME280;59609;52.430;4.668;2022-09-06T13:11:09;101634.69;;;27.09;55.82
71778;BME280;59609;52.430;4.668;2022-09-06T13:13:45;101640.69;;;27.30;55.44
71778;BME280;59609;52.430;4.668;2022-09-06T13:16:18;101632.03;;;26.86;54.83
71778;BME280;59609;52.430;4.668;2022-09-06T13:18:44;101629.91;;;26.37;56.04
71778;BME280;59609;52.430;4.668;2022-09-06T13:21:10;101613.59;;;26.84;55.53
71778;BME280;59609;52.430;4.668;2022-09-06T13:23:46;101622.69;;;27.19;53.78
71778;BME280;59609;52.430;4.668;2022-09-06T13:26:13;101620.41;;;26.43;56.13
71778;BME280;59609;52.430;4.668;2022-09-06T13:28:39;101623.44;;;26.53;55.29
71778;BME280;59609;52.430;4.668;2022-09-06T13:33:42;101628.13;;;26.76;54.91
71778;BME280;59609;52.430;4.668;2022-09-06T13:36:22;101625.50;;;26.41;57.09
71778;BME280;59609;52.430;4.668;2022-09-06T13:38:48;101618.63;;;26.65;56.77
71778;BME280;59609;52.430;4.668;2022-09-06T13:46:31;101618.81;;;26.47;56.23
71778;BME280;59609;52.430;4.668;2022-09-06T13:48:57;101604.59;;;26.42;54.94
71778;BME280;59609;52.430;4.668;2022-09-06T13:51:23;101616.38;;;26.39;54.29
71778;BME280;59609;52.430;4.668;2022-09-06T13:53:50;101618.53;;;25.45;56.22
71778;BME280;59609;52.430;4.668;2022-09-06T13:56:16;101612.41;;;25.25;58.69
71778;BME280;59609;52.430;4.668;2022-09-06T13:58:42;101614.25;;;25.66;57.52
71778;BME280;59609;52.430;4.668;2022-09-06T14:01:08;101616.19;;;25.66;56.11
71778;BME280;59609;52.430;4.668;2022-09-06T14:03:36;101617.06;;;25.66;56.82
71778;BME280;59609;52.430;4.668;2022-09-06T14:06:02;101618.53;;;25.69;57.04
71778;BME280;59609;52.430;4.668;2022-09-06T14:08:28;101621.47;;;25.85;55.63
71778;BME280;59609;52.430;4.668;2022-09-06T14:10:54;101623.84;;;25.53;57.15
71778;BME280;59609;52.430;4.668;2022-09-06T14:13:20;101644.19;;;25.55;58.49
71778;BME280;59609;52.430;4.668;2022-09-06T14:15:47;101640.63;;;25.25;59.48
71778;BME280;59609;52.430;4.668;2022-09-06T14:18:13;101632.22;;;24.95;57.33
71778;BME280;59609;52.430;4.668;2022-09-06T14:20:39;101631.25;;;24.90;56.48
71778;BME280;59609;52.430;4.668;2022-09-06T14:23:05;101621.06;;;24.89;57.86
71778;BME280;59609;52.430;4.668;2022-09-06T14:25:34;101619.44;;;24.81;55.43
71778;BME280;59609;52.430;4.668;2022-09-06T14:28:00;101619.84;;;24.85;54.48
71778;BME280;59609;52.430;4.668;2022-09-06T14:30:25;101613.75;;;25.46;54.02
71778;BME280;59609;52.430;4.668;2022-09-06T14:32:51;101608.03;;;25.92;53.35
71778;BME280;59609;52.430;4.668;2022-09-06T14:35:16;101603.44;;;25.63;53.34
71778;BME280;59609;52.430;4.668;2022-09-06T14:37:42;101606.16;;;26.09;51.96
71778;BME280;59609;52.430;4.668;2022-09-06T14:40:07;101599.84;;;26.31;49.76
71778;BME280;59609;52.430;4.668;2022-09-06T14:42:34;101602.63;;;26.02;48.26
71778;BME280;59609;52.430;4.668;2022-09-06T14:45:00;101608.22;;;26.14;49.70
71778;BME280;59609;52.430;4.668;2022-09-06T14:47:25;101611.06;;;25.74;50.28
71778;BME280;59609;52.430;4.668;2022-09-06T14:49:51;101612.28;;;25.67;50.40